Mc Dowell, Kentucky
Current Conditions -  °F | °C
As of 10:55 PM on Tuesday 21 Oct 2014 (Local Time) from KPBX Reporting Station
Overcast Overcast  
Wind Chill: 44°   Ceiling: 2300
Heat Index: 47°   Visibility: 10mi
Dew Point: 41°   Wind: 6mph
Humidity: 79%   Direction: 320°NW
Pressure: 30.11"   Gusts: NA
Location:  37.4275°N, 82.7438°W
Report Text: KPBX 220255Z AUTO 32005KT 10SM BKN023 BKN030 OVC055 08/05 A3011 RMK AO2 T00830048
Loading
Personal Weather Stations






























Interactive Weather Map
Tropical Storm Tracking
New forecast layout! Learn more

10-Day Weather Forecast

Advertisements
Track Severe Weather on mobile